Trenton, NJ (08607)

8:27 PM EDT on March 27, 2017 (GMT -0400)
Morris Heights | | Change Station

Elev 89 ft 40.22 °N, 74.78 °W | Updated 8 seconds ago

Partly Cloudy
Partly Cloudy
53.3 °F
Feels Like 53.3 °F
N
0.0
Wind Variable Wind from NW
Gusts 0.0 mph

Today
High -- | Low -- °F
--% Chance of Precip.
Yesterday
High -- | Low -- °F
Precip. -- in
Pressure 29.96 in
Visibility 6.0 miles
Clouds Clear
Dew Point 48 °F
Humidity 83%
Rainfall 0.11 in
Snow Depth Not available.
6:50 AM 7:18 PM
Waning Crescent, 0% visible
METAR KTTN 272353Z 04003KT 6SM BR CLR 12/10 A2997 RMK AO2 SLP145 60000 T01170100 10133 20111 55005
Pressure 29.96 in
Visibility 6.0 miles
Clouds Clear
Dew Point 48 °F
Humidity 83%
Rainfall 0.11 in
Snow Depth Not available.
6:50 AM 7:18 PM
Waning Crescent, 0% visible
METAR KTTN 272353Z 04003KT 6SM BR CLR 12/10 A2997 RMK AO2 SLP145 60000 T01170100 10133 20111 55005

Get Severe Weather Alerts

Thanks for signing up!

Be on the lookout for a verification email in your inbox.

You'll start receiving the daily forecast at 8 AM.

×

10-Day Weather Forecast

Almanac

Astronomy

Mar. 27, 2017 Rise Set
Actual Time
Civil Twilight
Nautical Twilight
Astronomical Twilight
Moon
Length of Visible Light
Length of Day
Tomorrow will be .
, % of the Moon is Illuminated

Today's Extremes

State Highs State Lows

Community

WunderPhotos

Upload Photos

1,962,540 photos uploaded!

WunderBlog® & News

Nearby

Air Quality

  Air Quality AQ Index Pollutant
Not available.

Snow Depth

Station Depth Elevation

Earthquake Activity

City Distance Mag. Time & Date
Minimum magnitude displayed is 2.5.

Earthquake Activity

City Distance Mag. Time & Date
Minimum magnitude displayed is 2.5.

Coastal Water Temperatures

Place Temperature

Stations

Nearby Weather Stations

Station Location Temp. Windchill Dew Point Humidity Wind Precip. Elev Updated Type
                   

Watches & Warnings

There are currently no watches in effect.